createdAt,value
2019-02-14T00:01:02.546Z,7.06
2019-02-14T00:06:07.830Z,6.96
2019-02-14T00:11:13.301Z,6.96
2019-02-14T00:16:18.758Z,6.91
2019-02-14T00:21:23.790Z,6.85
2019-02-14T00:26:28.945Z,6.79
2019-02-14T00:31:33.993Z,6.74
2019-02-14T00:36:39.042Z,6.70
2019-02-14T00:41:44.304Z,6.65
2019-02-14T00:46:49.722Z,6.60
2019-02-14T00:51:54.747Z,6.51
2019-02-14T00:56:59.795Z,6.37
2019-02-14T01:02:05.870Z,6.25
2019-02-14T01:07:10.852Z,6.21
2019-02-14T01:12:16.091Z,6.22
2019-02-14T01:17:21.338Z,6.21
2019-02-14T01:22:26.375Z,6.20
2019-02-14T01:27:31.510Z,6.16
2019-02-14T01:32:36.513Z,6.08
2019-02-14T01:37:41.619Z,6.05
2019-02-14T01:42:46.938Z,5.99
2019-02-14T01:47:51.983Z,5.92
2019-02-14T01:52:57.103Z,5.90
2019-02-14T01:58:02.314Z,5.83
2019-02-14T02:03:07.440Z,5.77
2019-02-14T02:08:12.532Z,5.76
2019-02-14T02:13:17.756Z,5.74
2019-02-14T02:18:23.023Z,5.76
2019-02-14T02:23:28.097Z,5.68
2019-02-14T02:28:33.180Z,5.67
2019-02-14T02:33:38.233Z,5.61
2019-02-14T02:38:44.398Z,5.53
2019-02-14T02:43:49.479Z,5.46
2019-02-14T02:48:54.508Z,5.39
2019-02-14T02:54:00.038Z,5.40
2019-02-14T02:59:05.538Z,5.40
2019-02-14T03:04:10.616Z,5.34
2019-02-14T03:09:16.002Z,5.39
2019-02-14T03:14:21.000Z,5.30
2019-02-14T03:19:26.505Z,5.21
2019-02-14T03:24:31.497Z,5.14
2019-02-14T03:29:36.526Z,5.06
2019-02-14T03:34:41.600Z,5.08
2019-02-14T03:39:46.729Z,5.02
2019-02-14T03:44:51.686Z,5.04
2019-02-14T03:49:56.782Z,5.00
2019-02-14T03:55:01.853Z,5.04
2019-02-14T04:00:10.104Z,5.07
2019-02-14T04:05:15.486Z,5.08
2019-02-14T04:10:20.536Z,4.98
2019-02-14T04:15:25.536Z,4.96
2019-02-14T04:20:30.924Z,4.94
2019-02-14T04:25:36.054Z,4.96
2019-02-14T04:30:41.497Z,4.94
2019-02-14T04:35:47.721Z,4.85
2019-02-14T04:40:52.746Z,4.83
2019-02-14T04:45:57.864Z,4.80
2019-02-14T04:51:02.921Z,4.84
2019-02-14T04:56:08.072Z,4.88
2019-02-14T05:01:13.167Z,4.89
2019-02-14T05:06:18.171Z,4.91
2019-02-14T05:11:23.224Z,4.88
2019-02-14T05:16:28.290Z,4.89
2019-02-14T05:21:33.410Z,4.93
2019-02-14T05:26:38.482Z,4.89
2019-02-14T05:31:43.516Z,4.84
2019-02-14T05:36:53.694Z,4.76
2019-02-14T05:42:05.122Z,4.69
2019-02-14T05:47:10.466Z,4.63
2019-02-14T05:52:15.526Z,4.68
2019-02-14T05:57:20.568Z,4.62
2019-02-14T06:02:25.668Z,4.54
2019-02-14T06:07:30.838Z,4.51
2019-02-14T06:12:35.991Z,4.44
2019-02-14T06:17:41.575Z,4.49
2019-02-14T06:22:47.762Z,4.52
2019-02-14T06:27:52.977Z,4.47
2019-02-14T06:32:59.021Z,4.41
2019-02-14T06:38:04.060Z,4.35
2019-02-14T06:43:09.084Z,4.23
2019-02-14T06:48:15.127Z,4.33
2019-02-14T06:53:20.250Z,4.33
2019-02-14T06:58:26.668Z,4.28
2019-02-14T07:03:32.108Z,4.34
2019-02-14T07:08:37.354Z,4.36
2019-02-14T07:13:45.111Z,4.30
2019-02-14T07:18:50.811Z,4.29
2019-02-14T07:23:57.184Z,4.38
2019-02-14T07:29:02.574Z,4.46
2019-02-14T07:34:10.003Z,4.47
2019-02-14T07:39:15.258Z,4.55
2019-02-14T07:44:20.374Z,4.65
2019-02-14T07:49:25.676Z,4.63
2019-02-14T07:54:30.941Z,4.69
2019-02-14T07:59:36.182Z,4.69
2019-02-14T08:04:41.314Z,4.71
2019-02-14T08:09:46.506Z,4.80
2019-02-14T08:14:51.913Z,4.82
2019-02-14T08:19:57.250Z,4.80
2019-02-14T08:25:02.577Z,4.91
2019-02-14T08:30:09.582Z,5.08
2019-02-14T08:35:14.909Z,5.27
2019-02-14T08:40:23.276Z,5.39
2019-02-14T08:45:28.427Z,5.37
2019-02-14T08:50:33.750Z,5.37
2019-02-14T08:55:39.326Z,5.48
2019-02-14T09:00:44.872Z,5.53
2019-02-14T09:05:50.255Z,5.69
2019-02-14T09:10:55.524Z,5.80
2019-02-14T09:16:00.929Z,5.84
2019-02-14T09:21:06.210Z,5.84
2019-02-14T09:26:11.816Z,5.89
2019-02-14T09:31:17.178Z,6.01
2019-02-14T09:36:22.476Z,6.02
2019-02-14T09:41:27.792Z,6.11
2019-02-14T09:46:32.934Z,6.19
2019-02-14T09:51:38.105Z,6.30
2019-02-14T09:56:43.247Z,6.43
2019-02-14T10:01:48.423Z,6.53
2019-02-14T10:06:53.969Z,6.72
2019-02-14T10:11:59.348Z,7.31
2019-02-14T10:17:05.512Z,9.88
2019-02-14T10:22:10.750Z,12.79
2019-02-14T10:27:15.947Z,15.86
2019-02-14T10:32:21.108Z,18.18
2019-02-14T10:37:26.271Z,17.89
2019-02-14T10:42:31.527Z,17.37
2019-02-14T10:47:36.567Z,17.05
2019-02-14T10:52:41.673Z,16.73
2019-02-14T10:57:46.923Z,18.07
2019-02-14T11:02:53.071Z,17.35
2019-02-14T11:07:58.232Z,19.30
2019-02-14T11:13:03.473Z,19.87
2019-02-14T11:18:08.943Z,17.84
2019-02-14T11:23:14.121Z,18.32
2019-02-14T11:28:19.364Z,19.92
2019-02-14T11:33:24.666Z,20.00
2019-02-14T11:38:29.879Z,18.26
2019-02-14T11:43:34.943Z,17.60
2019-02-14T11:48:39.978Z,17.60
2019-02-14T11:53:45.164Z,18.84
2019-02-14T11:58:50.674Z,19.54
2019-02-14T12:03:55.800Z,19.99
2019-02-14T12:09:05.010Z,19.77
2019-02-14T12:14:11.440Z,19.90
2019-02-14T12:19:17.025Z,19.17
2019-02-14T12:24:23.899Z,18.46
2019-02-14T12:29:32.444Z,18.71
2019-02-14T12:34:37.956Z,18.87
2019-02-14T12:39:43.104Z,20.90
2019-02-14T12:44:47.330Z,22.48
2019-02-14T12:49:57.565Z,21.89
2019-02-14T12:55:03.283Z,21.80
2019-02-14T13:00:09.048Z,23.30
2019-02-14T13:05:13.085Z,24.03
2019-02-14T13:10:17.023Z,24.65
2019-02-14T13:15:21.451Z,24.88
2019-02-14T13:20:26.255Z,24.98
2019-02-14T13:25:33.924Z,24.31
2019-02-14T13:30:38.571Z,23.29
2019-02-14T13:36:03.416Z,22.38
2019-02-14T13:41:11.719Z,22.30
2019-02-14T13:46:17.418Z,21.25
2019-02-14T13:51:21.580Z,21.17
2019-02-14T13:56:25.633Z,20.85
2019-02-14T14:01:29.587Z,20.60
2019-02-14T14:06:33.676Z,20.93
2019-02-14T14:11:38.122Z,20.46
2019-02-14T14:16:42.442Z,20.08
2019-02-14T14:21:47.358Z,19.63
2019-02-14T14:26:51.654Z,19.39
2019-02-14T14:31:55.659Z,18.42
2019-02-14T14:36:59.570Z,16.58
2019-02-14T14:42:05.242Z,15.47
2019-02-14T14:47:15.909Z,14.23
2019-02-14T14:52:20.157Z,13.53
2019-02-14T14:57:25.090Z,13.09
2019-02-14T15:02:30.186Z,12.81
2019-02-14T15:07:36.189Z,12.43
2019-02-14T15:12:41.599Z,12.37
2019-02-14T15:17:47.050Z,12.34
2019-02-14T15:22:52.178Z,12.22
2019-02-14T15:27:57.364Z,12.12
2019-02-14T15:33:02.641Z,12.02
2019-02-14T15:38:09.850Z,11.93
2019-02-14T15:43:14.745Z,11.84
2019-02-14T15:48:19.847Z,11.78
2019-02-14T15:53:25.367Z,11.68
2019-02-14T15:58:32.914Z,11.59
2019-02-14T16:03:38.540Z,11.48
2019-02-14T16:08:46.711Z,11.39
2019-02-14T16:13:52.827Z,11.33
2019-02-14T16:18:58.596Z,11.24
2019-02-14T16:24:04.032Z,11.16
2019-02-14T16:29:09.233Z,11.03
2019-02-14T16:34:15.446Z,10.91
2019-02-14T16:39:22.954Z,10.79
2019-02-14T16:44:27.894Z,10.74
2019-02-14T16:49:33.028Z,10.66
2019-02-14T16:54:38.654Z,10.58
2019-02-14T16:59:43.923Z,10.47
2019-02-14T17:04:49.408Z,10.36
2019-02-14T17:09:55.054Z,10.31
2019-02-14T17:15:00.187Z,10.25
2019-02-14T17:20:07.268Z,10.18
2019-02-14T17:25:13.107Z,10.16
2019-02-14T17:30:18.623Z,10.05
2019-02-14T17:35:23.656Z,9.97
2019-02-14T17:40:28.760Z,9.91
2019-02-14T17:45:33.893Z,9.88
2019-02-14T17:50:39.324Z,9.79
2019-02-14T17:55:46.428Z,9.69
2019-02-14T18:00:51.791Z,9.68
2019-02-14T18:05:57.222Z,9.61
2019-02-14T18:11:02.271Z,9.53
2019-02-14T18:16:08.518Z,9.51
2019-02-14T18:21:15.330Z,9.43
2019-02-14T18:26:20.717Z,9.37
2019-02-14T18:31:26.216Z,9.29
2019-02-14T18:36:31.395Z,9.27
2019-02-14T18:41:36.480Z,9.23
2019-02-14T18:46:41.895Z,9.17
2019-02-14T18:51:47.059Z,9.09
2019-02-14T18:56:52.343Z,9.03
2019-02-14T19:01:57.426Z,9.01
2019-02-14T19:07:02.568Z,8.98
2019-02-14T19:12:09.063Z,8.90
2019-02-14T19:17:14.255Z,8.80
2019-02-14T19:22:19.928Z,8.76
2019-02-14T19:27:25.416Z,8.70
2019-02-14T19:32:31.588Z,8.60
2019-02-14T19:37:36.812Z,8.60
2019-02-14T19:42:42.395Z,8.58
2019-02-14T19:47:47.854Z,8.50
2019-02-14T19:52:53.367Z,8.44
2019-02-14T19:57:59.447Z,8.39
2019-02-14T20:03:06.075Z,8.34
2019-02-14T20:08:16.557Z,8.29
2019-02-14T20:13:22.074Z,8.23
2019-02-14T20:18:31.632Z,8.16
2019-02-14T20:23:38.371Z,8.11
2019-02-14T20:28:44.722Z,8.08
2019-02-14T20:33:52.934Z,8.02
2019-02-14T20:38:58.712Z,7.96
2019-02-14T20:44:04.271Z,7.85
2019-02-14T20:49:12.158Z,7.83
2019-02-14T20:54:20.471Z,7.69
2019-02-14T20:59:34.493Z,7.56
2019-02-14T21:04:41.094Z,7.60
2019-02-14T21:09:49.791Z,7.53
2019-02-14T21:14:56.192Z,7.51
2019-02-14T21:20:05.746Z,7.36
2019-02-14T21:25:22.468Z,7.22
2019-02-14T21:30:42.910Z,7.12
2019-02-14T21:35:59.675Z,7.12
2019-02-14T21:41:05.876Z,7.05
2019-02-14T21:46:12.291Z,6.99
2019-02-14T21:51:26.735Z,7.00
2019-02-14T21:56:33.218Z,6.90
2019-02-14T22:01:40.015Z,6.93
2019-02-14T22:06:49.045Z,6.76
2019-02-14T22:11:58.154Z,6.73
2019-02-14T22:17:09.279Z,6.63
2019-02-14T22:22:15.468Z,6.55
2019-02-14T22:27:21.707Z,6.65
2019-02-14T22:32:28.912Z,6.52
2019-02-14T22:37:34.869Z,6.45
2019-02-14T22:42:47.401Z,6.55
2019-02-14T22:47:51.686Z,6.59
2019-02-14T22:52:59.877Z,6.49
2019-02-14T22:58:08.966Z,6.39
2019-02-14T23:03:18.303Z,6.30
2019-02-14T23:08:32.801Z,6.27
2019-02-14T23:13:38.661Z,6.26
2019-02-14T23:18:47.339Z,6.29
2019-02-14T23:23:55.846Z,6.25
2019-02-14T23:29:02.331Z,6.24
2019-02-14T23:34:10.698Z,6.20
2019-02-14T23:39:24.220Z,6.23
2019-02-14T23:44:32.349Z,6.19
2019-02-14T23:49:41.650Z,6.08
2019-02-14T23:55:11.849Z,6.04
